Time;durP1;ratioP1;P1;durP2;ratioP2;P2;SDS_P1;SDS_P2;PMS_P1;PMS_P2;Temp;Humidity;BMP_temperature;BMP_pressure;BME280_temperature;BME280_humidity;BME280_pressure;Samples;Min_cycle;Max_cycle;Signal;HPM_P1;HPM_P2
2022/11/09 00:06:50;;;;;;;3.93;1.43;;;;;;;;;;10581484;27;20058;-76
2022/11/09 00:12:14;;;;;;;3.40;1.70;;;;;;;;;;10579210;27;20388;-75
2022/11/09 00:17:46;;;;;;;5.13;2.00;;;;;;;;;;10582015;27;20034;-76
2022/11/09 00:22:56;;;;;;;6.75;1.77;;;;;;;;;;10601123;27;20050;-75
2022/11/09 00:28:16;;;;;;;1.35;0.80;;;;;;;;;;10579619;27;20102;-77
2022/11/09 00:33:21;;;;;;;2.90;1.48;;;;;;;;;;10562720;27;20051;-76
2022/11/09 00:38:28;;;;;;;1.65;0.77;;;;;;;;;;10574119;27;20073;-75
2022/11/09 00:43:34;;;;;;;3.58;1.60;;;;;;;;;;10576192;27;20048;-76
2022/11/09 00:48:44;;;;;;;1.92;1.40;;;;;;;;;;10574903;27;20053;-76
2022/11/09 00:53:53;;;;;;;3.05;1.60;;;;;;;;;;10589973;27;20043;-75
2022/11/09 00:58:59;;;;;;;0.80;0.70;;;;;;;;;;10576818;27;20047;-76
2022/11/09 01:04:09;;;;;;;2.83;1.27;;;;;;;;;;10573997;27;20027;-76
2022/11/09 01:09:19;;;;;;;2.28;1.00;;;;;;;;;;10572612;27;20823;-76
2022/11/09 01:14:30;;;;;;;3.78;0.93;;;;;;;;;;10575491;27;20028;-76
2022/11/09 01:19:45;;;;;;;2.15;1.05;;;;;;;;;;10576979;27;20411;-74
2022/11/09 01:30:14;;;;;;;3.22;1.30;;;;;;;;;;10569780;27;20048;-75
2022/11/09 01:35:23;;;;;;;4.40;1.38;;;;;;;;;;10570881;27;20070;-75
2022/11/09 01:40:28;;;;;;;3.60;1.45;;;;;;;;;;10570014;27;20047;-75
2022/11/09 01:45:41;;;;;;;3.63;1.60;;;;;;;;;;10567286;27;20088;-76
2022/11/09 01:50:54;;;;;;;2.83;0.88;;;;;;;;;;10567592;27;20048;-75
2022/11/09 01:56:14;;;;;;;4.18;1.35;;;;;;;;;;10563821;27;20536;-76
2022/11/09 02:01:19;;;;;;;2.63;1.20;;;;;;;;;;10568367;27;20059;-77
2022/11/09 02:06:35;;;;;;;5.35;1.10;;;;;;;;;;10554600;28;20107;-77
2022/11/09 02:11:51;;;;;;;3.25;1.63;;;;;;;;;;10571202;28;20104;-76
2022/11/09 02:17:04;;;;;;;5.03;1.52;;;;;;;;;;10570178;28;20441;-77
2022/11/09 02:22:29;;;;;;;1.42;1.15;;;;;;;;;;10568721;28;20039;-76
2022/11/09 02:27:35;;;;;;;3.08;1.42;;;;;;;;;;10547342;28;20150;-75
2022/11/09 02:32:51;;;;;;;3.03;1.08;;;;;;;;;;10566645;28;20036;-75
2022/11/09 02:38:10;;;;;;;3.30;1.40;;;;;;;;;;10566005;27;20067;-75
2022/11/09 02:43:19;;;;;;;3.33;1.48;;;;;;;;;;10567524;28;20070;-75
2022/11/09 02:48:24;;;;;;;3.15;1.20;;;;;;;;;;10547294;28;20047;-76
2022/11/09 02:53:30;;;;;;;3.27;1.40;;;;;;;;;;10572132;28;20043;-76
2022/11/09 02:58:40;;;;;;;4.25;1.35;;;;;;;;;;10567146;28;20500;-75
2022/11/09 03:03:45;;;;;;;3.58;1.42;;;;;;;;;;10556580;28;20043;-75
2022/11/09 03:08:55;;;;;;;4.25;1.38;;;;;;;;;;10570414;27;21289;-76
2022/11/09 03:14:17;;;;;;;3.65;1.70;;;;;;;;;;10564273;27;21437;-75
2022/11/09 03:19:25;;;;;;;1.95;1.10;;;;;;;;;;10575274;27;20039;-75
2022/11/09 03:24:32;;;;;;;3.00;1.40;;;;;;;;;;10573735;27;20062;-76
2022/11/09 03:29:38;;;;;;;2.33;1.40;;;;;;;;;;10563420;27;20463;-77
2022/11/09 03:34:44;;;;;;;3.38;1.48;;;;;;;;;;10562509;27;20046;-77
2022/11/09 03:45:23;;;;;;;1.83;0.95;;;;;;;;;;10559516;27;20037;-76
2022/11/09 03:50:30;;;;;;;1.70;1.05;;;;;;;;;;10572502;27;20534;-76
2022/11/09 03:55:42;;;;;;;2.15;0.88;;;;;;;;;;10580026;27;20050;-76
2022/11/09 04:00:54;;;;;;;1.50;0.65;;;;;;;;;;10572663;27;20050;-75
2022/11/09 04:06:06;;;;;;;2.00;0.85;;;;;;;;;;10575554;27;20038;-76
2022/11/09 04:11:11;;;;;;;4.38;1.23;;;;;;;;;;10554685;27;20080;-74
2022/11/09 04:16:30;;;;;;;1.85;0.90;;;;;;;;;;10571794;27;20058;-75
2022/11/09 04:27:05;;;;;;;1.35;0.90;;;;;;;;;;10555056;27;20047;-76
2022/11/09 04:32:14;;;;;;;2.92;1.35;;;;;;;;;;10575445;27;20065;-76
2022/11/09 04:37:19;;;;;;;2.28;1.10;;;;;;;;;;10571281;27;20157;-75
2022/11/09 04:42:24;;;;;;;2.33;0.93;;;;;;;;;;10571589;27;20058;-76
2022/11/09 04:47:36;;;;;;;2.40;0.90;;;;;;;;;;10570870;27;20174;-75
2022/11/09 04:52:53;;;;;;;1.10;0.38;;;;;;;;;;10565635;27;20035;-75
2022/11/09 04:58:04;;;;;;;1.10;0.60;;;;;;;;;;10569739;27;20059;-76
2022/11/09 05:03:10;;;;;;;0.63;0.63;;;;;;;;;;10571710;27;20083;-74
2022/11/09 05:08:17;;;;;;;3.28;1.10;;;;;;;;;;10572743;27;20389;-76
2022/11/09 05:13:21;;;;;;;2.53;0.93;;;;;;;;;;10553986;27;20039;-75
2022/11/09 05:18:30;;;;;;;1.80;0.93;;;;;;;;;;10568611;27;20038;-76
2022/11/09 05:28:58;;;;;;;0.75;0.45;;;;;;;;;;10562445;27;20127;-77
2022/11/09 05:34:06;;;;;;;1.73;1.00;;;;;;;;;;10548317;27;20046;-76
2022/11/09 05:39:11;;;;;;;1.15;0.68;;;;;;;;;;10558126;27;20056;-76
2022/11/09 05:44:20;;;;;;;0.65;0.40;;;;;;;;;;10567960;27;20047;-75
2022/11/09 05:49:34;;;;;;;1.17;0.85;;;;;;;;;;10548909;27;20168;-75
2022/11/09 05:54:41;;;;;;;2.50;1.17;;;;;;;;;;10573544;27;20043;-76
2022/11/09 06:05:23;;;;;;;2.97;1.05;;;;;;;;;;10549163;28;20115;-75
2022/11/09 06:10:28;;;;;;;2.15;1.20;;;;;;;;;;10566122;28;20051;-76
2022/11/09 06:15:39;;;;;;;0.80;0.77;;;;;;;;;;10567559;28;20051;-75
2022/11/09 06:20:45;;;;;;;1.75;0.85;;;;;;;;;;10557682;28;20039;-74
2022/11/09 06:31:38;;;;;;;1.65;1.00;;;;;;;;;;10556426;28;20031;-75
2022/11/09 06:36:47;;;;;;;2.13;1.15;;;;;;;;;;10569573;28;20042;-75
2022/11/09 06:41:52;;;;;;;2.08;1.17;;;;;;;;;;10572637;27;20107;-75
2022/11/09 06:47:17;;;;;;;3.22;1.52;;;;;;;;;;10578871;27;20506;-76
2022/11/09 06:52:38;;;;;;;3.20;1.55;;;;;;;;;;10584604;27;20101;-77
2022/11/09 06:57:58;;;;;;;4.18;1.63;;;;;;;;;;10560326;27;20138;-78
2022/11/09 07:03:06;;;;;;;7.32;2.03;;;;;;;;;;10562400;27;20624;-76
2022/11/09 07:08:14;;;;;;;3.92;1.65;;;;;;;;;;10578676;27;20047;-77
2022/11/09 07:13:23;;;;;;;2.40;1.58;;;;;;;;;;10561023;27;20044;-76
2022/11/09 07:18:37;;;;;;;7.80;1.85;;;;;;;;;;10556563;27;20050;-76
2022/11/09 07:23:45;;;;;;;3.30;1.60;;;;;;;;;;10562119;27;20161;-75
2022/11/09 07:28:51;;;;;;;3.35;1.85;;;;;;;;;;10591480;27;20173;-76
2022/11/09 07:34:06;;;;;;;4.00;1.75;;;;;;;;;;10573702;27;20096;-77
2022/11/09 07:39:09;;;;;;;;;;;;;;;;;;10598084;27;20060;-76
2022/11/09 07:44:21;;;;;;;2.40;1.25;;;;;;;;;;10557201;27;19968;-76
2022/11/09 07:49:31;;;;;;;6.90;1.45;;;;;;;;;;10576200;27;20043;-76
2022/11/09 07:54:42;;;;;;;3.92;1.60;;;;;;;;;;10573318;27;20134;-76
2022/11/09 08:05:15;;;;;;;5.50;1.90;;;;;;;;;;10574395;27;20390;-75
2022/11/09 08:15:46;;;;;;;4.10;2.20;;;;;;;;;;10572701;27;20044;-75
2022/11/09 08:26:17;;;;;;;4.55;1.98;;;;;;;;;;10572819;27;20039;-76
2022/11/09 08:31:29;;;;;;;6.05;2.25;;;;;;;;;;10571506;27;20067;-78
2022/11/09 08:36:50;;;;;;;3.70;1.73;;;;;;;;;;10572076;27;20038;-77
2022/11/09 08:41:57;;;;;;;8.13;2.20;;;;;;;;;;10572654;27;20050;-77
2022/11/09 08:47:18;;;;;;;4.15;1.50;;;;;;;;;;10572991;27;20501;-77
2022/11/09 08:52:39;;;;;;;3.90;1.67;;;;;;;;;;10585837;27;20059;-76
2022/11/09 08:57:56;;;;;;;2.95;1.55;;;;;;;;;;10574037;27;20032;-78
2022/11/09 09:03:22;;;;;;;6.68;2.20;;;;;;;;;;10572364;27;20063;-77
2022/11/09 09:08:43;;;;;;;2.78;1.30;;;;;;;;;;10573446;27;20112;-77
2022/11/09 09:13:52;;;;;;;3.00;1.42;;;;;;;;;;10572989;27;20047;-75
2022/11/09 09:18:57;;;;;;;5.15;1.50;;;;;;;;;;10572574;27;20135;-76
2022/11/09 09:24:04;;;;;;;2.63;1.27;;;;;;;;;;10575277;27;20501;-76
2022/11/09 09:29:14;;;;;;;3.08;1.40;;;;;;;;;;10556074;27;20047;-77
2022/11/09 09:34:23;;;;;;;2.72;1.27;;;;;;;;;;10588687;27;20101;-77
2022/11/09 09:39:36;;;;;;;5.30;1.50;;;;;;;;;;10572769;27;20330;-77
2022/11/09 09:44:46;;;;;;;2.80;1.50;;;;;;;;;;10560584;27;20502;-77
2022/11/09 09:49:55;;;;;;;2.85;1.33;;;;;;;;;;10559027;27;20047;-77
2022/11/09 09:55:15;;;;;;;2.40;1.35;;;;;;;;;;10580295;27;20167;-77
2022/11/09 10:00:28;;;;;;;2.00;1.10;;;;;;;;;;10575162;27;20039;-77
2022/11/09 10:05:38;;;;;;;4.07;1.63;;;;;;;;;;10576015;28;20122;-77
2022/11/09 10:10:49;;;;;;;2.67;1.77;;;;;;;;;;10578810;28;20503;-78
2022/11/09 10:16:00;;;;;;;3.30;1.60;;;;;;;;;;10578194;27;20043;-78
2022/11/09 10:21:17;;;;;;;7.00;1.80;;;;;;;;;;10565107;27;20421;-77
2022/11/09 10:26:40;;;;;;;1.85;1.00;;;;;;;;;;10582616;27;20065;-76
2022/11/09 10:31:55;;;;;;;1.90;1.05;;;;;;;;;;10591406;27;20043;-77
2022/11/09 10:37:16;;;;;;;4.88;1.20;;;;;;;;;;10562437;27;20046;-77
2022/11/09 10:42:22;;;;;;;;;;;;;;;;;;10562057;27;20059;-76
2022/11/09 10:47:47;;;;;;;2.55;1.58;;;;;;;;;;10580573;27;19924;-76
2022/11/09 10:53:12;;;;;;;5.93;2.13;;;;;;;;;;10563376;27;20070;-79
2022/11/09 10:58:30;;;;;;;3.17;2.10;;;;;;;;;;10576678;27;20584;-78
2022/11/09 11:03:41;;;;;;;3.08;1.80;;;;;;;;;;10576679;27;20075;-77
2022/11/09 11:08:50;;;;;;;4.00;2.00;;;;;;;;;;10576483;27;20047;-76
2022/11/09 11:14:12;;;;;;;2.03;1.80;;;;;;;;;;10580405;27;20043;-78
2022/11/09 11:19:41;;;;;;;2.03;1.83;;;;;;;;;;10575656;27;20087;-77
2022/11/09 11:24:59;;;;;;;4.45;2.10;;;;;;;;;;10563891;27;20514;-78
2022/11/09 11:30:10;;;;;;;3.35;1.70;;;;;;;;;;10559714;27;20039;-78
2022/11/09 11:35:30;;;;;;;5.78;2.10;;;;;;;;;;10574057;27;20138;-77
2022/11/09 11:40:50;;;;;;;2.40;1.92;;;;;;;;;;10572536;27;20821;-77
2022/11/09 11:46:03;;;;;;;3.00;1.90;;;;;;;;;;10572053;27;20051;-78
2022/11/09 11:51:26;;;;;;;2.25;1.45;;;;;;;;;;10573447;27;20040;-77
2022/11/09 11:56:33;;;;;;;2.33;1.60;;;;;;;;;;10571515;27;20085;-78
2022/11/09 12:01:50;;;;;;;2.85;1.80;;;;;;;;;;10576759;27;20046;-77
2022/11/09 12:07:05;;;;;;;3.65;1.38;;;;;;;;;;10552980;27;20093;-78
2022/11/09 12:12:19;;;;;;;2.20;1.60;;;;;;;;;;10572587;27;20415;-77
2022/11/09 12:17:27;;;;;;;3.10;1.80;;;;;;;;;;10572892;27;20039;-79
2022/11/09 12:22:40;;;;;;;2.55;1.60;;;;;;;;;;10574002;27;20047;-77
2022/11/09 12:27:57;;;;;;;2.75;1.65;;;;;;;;;;10565259;27;20112;-78
2022/11/09 12:33:11;;;;;;;4.60;1.92;;;;;;;;;;10570972;27;20058;-78
2022/11/09 12:44:13;;;;;;;3.78;1.50;;;;;;;;;;10542348;27;20471;-78
2022/11/09 12:49:25;;;;;;;1.88;1.38;;;;;;;;;;10513112;28;20055;-77
2022/11/09 12:54:29;;;;;;;2.17;1.02;;;;;;;;;;10511784;28;20838;-77
2022/11/09 12:59:46;;;;;;;1.40;1.10;;;;;;;;;;10509079;28;20537;-77
2022/11/09 13:04:56;;;;;;;3.17;1.17;;;;;;;;;;10518638;28;20040;-76
2022/11/09 13:10:01;;;;;;;1.98;1.30;;;;;;;;;;10516286;28;20528;-78
2022/11/09 13:15:23;;;;;;;4.07;1.38;;;;;;;;;;10543909;27;20125;-78
2022/11/09 13:20:40;;;;;;;2.35;1.20;;;;;;;;;;10524357;28;20040;-78
2022/11/09 13:25:57;;;;;;;2.90;1.30;;;;;;;;;;10510941;28;20418;-77
2022/11/09 13:31:08;;;;;;;3.30;1.63;;;;;;;;;;10507935;28;20043;-79
2022/11/09 13:36:16;;;;;;;2.75;1.38;;;;;;;;;;10508657;28;20414;-78
2022/11/09 13:41:38;;;;;;;3.50;1.80;;;;;;;;;;10512513;28;20055;-76
2022/11/09 13:46:45;;;;;;;5.45;1.40;;;;;;;;;;10509208;28;20031;-77
2022/11/09 13:51:48;;;;;;;2.63;1.20;;;;;;;;;;10501860;28;20048;-76
2022/11/09 13:56:52;;;;;;;2.08;1.50;;;;;;;;;;10487520;28;20053;-77
2022/11/09 14:01:58;;;;;;;3.83;1.70;;;;;;;;;;10482001;28;20040;-76
2022/11/09 14:07:05;;;;;;;2.53;1.48;;;;;;;;;;10479920;28;20463;-76
2022/11/09 14:12:14;;;;;;;4.03;1.70;;;;;;;;;;10481302;28;20040;-77
2022/11/09 14:17:20;;;;;;;3.20;1.65;;;;;;;;;;10482138;28;20051;-77
2022/11/09 14:22:23;;;;;;;2.72;1.40;;;;;;;;;;10482764;28;20055;-77
2022/11/09 14:27:25;;;;;;;5.72;1.88;;;;;;;;;;10481167;28;20079;-77
2022/11/09 14:32:31;;;;;;;2.87;1.50;;;;;;;;;;10479508;28;20041;-76
2022/11/09 14:37:35;;;;;;;4.57;1.50;;;;;;;;;;10479835;28;20579;-77
2022/11/09 14:42:53;;;;;;;3.80;1.40;;;;;;;;;;10478491;28;20033;-76
2022/11/09 14:47:58;;;;;;;3.13;1.40;;;;;;;;;;10481033;28;20478;-77
2022/11/09 14:53:01;;;;;;;2.95;1.48;;;;;;;;;;10485473;28;20428;-78
2022/11/09 14:58:04;;;;;;;4.35;1.30;;;;;;;;;;10482218;28;20055;-78
2022/11/09 15:03:28;;;;;;;3.30;1.47;;;;;;;;;;10474316;28;20109;-77
2022/11/09 15:08:31;;;;;;;1.98;1.17;;;;;;;;;;10480283;28;20351;-77
2022/11/09 15:13:35;;;;;;;3.60;1.43;;;;;;;;;;10478702;28;20129;-76
2022/11/09 15:18:43;;;;;;;3.17;1.50;;;;;;;;;;10511911;27;20052;-77
2022/11/09 15:23:47;;;;;;;3.22;1.48;;;;;;;;;;10477462;28;20040;-77
2022/11/09 15:28:51;;;;;;;3.53;1.50;;;;;;;;;;10475972;28;20048;-76
2022/11/09 15:33:58;;;;;;;4.68;1.50;;;;;;;;;;10475875;28;20041;-76
2022/11/09 15:39:03;;;;;;;2.35;1.55;;;;;;;;;;10476255;28;20048;-76
2022/11/09 15:44:07;;;;;;;4.90;2.60;;;;;;;;;;10477718;28;20040;-77
2022/11/09 15:49:16;;;;;;;11.45;3.38;;;;;;;;;;10475988;28;20109;-76
2022/11/09 15:54:20;;;;;;;5.75;2.67;;;;;;;;;;10474723;28;20036;-77
2022/11/09 15:59:26;;;;;;;6.88;2.22;;;;;;;;;;10492369;28;20044;-77
2022/11/09 16:04:30;;;;;;;7.65;2.33;;;;;;;;;;10475131;28;20450;-78
2022/11/09 16:09:33;;;;;;;6.15;2.40;;;;;;;;;;10479096;28;20056;-78
2022/11/09 16:14:37;;;;;;;5.30;2.07;;;;;;;;;;10474333;28;20047;-79
2022/11/09 16:19:42;;;;;;;6.10;2.55;;;;;;;;;;10475858;28;20486;-78
2022/11/09 16:24:45;;;;;;;5.05;2.20;;;;;;;;;;10477279;28;20083;-79
2022/11/09 16:29:48;;;;;;;8.35;2.70;;;;;;;;;;10473779;28;20071;-78
2022/11/09 16:34:52;;;;;;;9.95;2.65;;;;;;;;;;10476325;28;20047;-77
2022/11/09 16:40:15;;;;;;;;;;;;;;;;;;10478373;28;20110;-77
2022/11/09 16:45:18;;;;;;;6.20;3.38;;;;;;;;;;10478942;28;19925;-78
2022/11/09 16:50:22;;;;;;;6.40;2.10;;;;;;;;;;10477413;28;20044;-77
2022/11/09 16:55:25;;;;;;;7.35;3.08;;;;;;;;;;10479605;28;20040;-77
2022/11/09 17:00:27;;;;;;;6.90;2.50;;;;;;;;;;10475599;28;20040;-78
2022/11/09 17:05:52;;;;;;;7.03;2.65;;;;;;;;;;10473941;28;20032;-78
2022/11/09 17:10:59;;;;;;;6.70;2.40;;;;;;;;;;10470028;28;20041;-77
2022/11/09 17:16:04;;;;;;;10.73;3.38;;;;;;;;;;10470981;28;20449;-78
2022/11/09 17:21:10;;;;;;;9.57;3.35;;;;;;;;;;10472903;28;20076;-78
2022/11/09 17:26:17;;;;;;;8.98;3.45;;;;;;;;;;10474597;28;20097;-76
2022/11/09 17:31:22;;;;;;;5.93;2.42;;;;;;;;;;10481468;28;20068;-75
2022/11/09 17:36:26;;;;;;;7.05;2.58;;;;;;;;;;10482913;28;20044;-74
2022/11/09 17:41:49;;;;;;;7.88;2.63;;;;;;;;;;10482470;28;20159;-77
2022/11/09 17:46:52;;;;;;;5.10;2.53;;;;;;;;;;10480420;28;20125;-74
2022/11/09 17:51:56;;;;;;;4.57;2.50;;;;;;;;;;10483146;28;20033;-77
2022/11/09 17:57:01;;;;;;;8.82;3.47;;;;;;;;;;10482379;28;20052;-75
2022/11/09 18:02:05;;;;;;;5.50;2.70;;;;;;;;;;10480082;28;20561;-75
2022/11/09 18:07:07;;;;;;;;;;;;;;;;;;10482058;28;21863;-75
2022/11/09 18:12:15;;;;;;;8.27;3.30;;;;;;;;;;10475787;28;19942;-76
2022/11/09 18:17:18;;;;;;;4.75;2.60;;;;;;;;;;10479032;28;20106;-75
2022/11/09 18:22:21;;;;;;;6.07;2.90;;;;;;;;;;10479843;28;20047;-77
2022/11/09 18:27:25;;;;;;;6.20;2.70;;;;;;;;;;10480680;28;20810;-75
2022/11/09 18:32:32;;;;;;;6.07;2.55;;;;;;;;;;10476813;28;20051;-75
2022/11/09 18:37:35;;;;;;;4.75;2.47;;;;;;;;;;10478304;28;20036;-77
2022/11/09 18:42:39;;;;;;;8.00;2.25;;;;;;;;;;10479784;28;20477;-75
2022/11/09 18:47:43;;;;;;;4.15;2.10;;;;;;;;;;10479765;28;20044;-75
2022/11/09 18:52:45;;;;;;;3.88;2.30;;;;;;;;;;10477975;28;20052;-76
2022/11/09 18:57:49;;;;;;;7.43;3.35;;;;;;;;;;10477004;28;20148;-75
2022/11/09 19:02:53;;;;;;;5.05;1.63;;;;;;;;;;10476949;28;20037;-74
2022/11/09 19:07:59;;;;;;;4.88;3.20;;;;;;;;;;10477868;28;20055;-76
2022/11/09 19:13:03;;;;;;;7.20;2.90;;;;;;;;;;10474027;28;20041;-77
2022/11/09 19:18:06;;;;;;;7.78;3.45;;;;;;;;;;10495226;28;20043;-75
2022/11/09 19:23:09;;;;;;;7.15;3.50;;;;;;;;;;10483864;28;20044;-76
2022/11/09 19:28:13;;;;;;;6.82;2.80;;;;;;;;;;10481007;28;20045;-76
2022/11/09 19:33:16;;;;;;;2.80;1.65;;;;;;;;;;10482212;28;20054;-76
2022/11/09 19:38:18;;;;;;;5.73;2.50;;;;;;;;;;10477848;28;20048;-77
2022/11/09 19:43:23;;;;;;;6.50;2.72;;;;;;;;;;10475443;28;20069;-75
2022/11/09 19:48:26;;;;;;;7.43;2.80;;;;;;;;;;10478620;28;20051;-76
2022/11/09 19:53:29;;;;;;;3.15;1.92;;;;;;;;;;10481463;28;20032;-75
2022/11/09 19:58:34;;;;;;;7.25;3.40;;;;;;;;;;10478894;28;20056;-79
2022/11/09 20:03:37;;;;;;;9.07;3.60;;;;;;;;;;10478597;28;20066;-77
2022/11/09 20:08:42;;;;;;;4.88;2.13;;;;;;;;;;10481720;28;20044;-77
2022/11/09 20:13:46;;;;;;;7.50;3.40;;;;;;;;;;10484684;28;21929;-77
2022/11/09 20:18:49;;;;;;;;;;;;;;;;;;10479350;28;20524;-75
2022/11/09 20:23:51;;;;;;;4.53;2.30;;;;;;;;;;10480086;28;19920;-74
2022/11/09 20:28:55;;;;;;;7.35;3.50;;;;;;;;;;10475484;28;20037;-75
2022/11/09 20:33:59;;;;;;;;;;;;;;;;;;10477243;28;20123;-74
2022/11/09 20:39:02;;;;;;;7.00;3.67;;;;;;;;;;10472859;28;19974;-74
2022/11/09 20:44:06;;;;;;;5.85;2.75;;;;;;;;;;10473837;28;20028;-86
2022/11/09 20:49:09;;;;;;;5.00;2.92;;;;;;;;;;10479283;28;20066;-86
2022/11/09 20:54:12;;;;;;;6.82;3.17;;;;;;;;;;10495901;28;20040;-86
2022/11/09 20:59:16;;;;;;;7.57;3.20;;;;;;;;;;10481757;28;20106;-87
2022/11/09 21:04:18;;;;;;;6.30;2.90;;;;;;;;;;10484367;28;20094;-85
2022/11/09 21:09:21;;;;;;;5.03;2.03;;;;;;;;;;10490737;28;20100;-86
2022/11/09 21:14:26;;;;;;;5.53;2.57;;;;;;;;;;10483401;28;20378;-86
2022/11/09 21:19:28;;;;;;;;;;;;;;;;;;10487823;28;20049;-84
2022/11/09 21:29:55;;;;;;;6.80;3.13;;;;;;;;;;10486196;28;20674;-78
2022/11/09 21:35:04;;;;;;;2.78;1.92;;;;;;;;;;10477712;28;20036;-77
2022/11/09 21:40:08;;;;;;;3.45;1.92;;;;;;;;;;10480403;28;20062;-77
2022/11/09 21:45:11;;;;;;;;;;;;;;;;;;10484448;28;20068;-77
2022/11/09 21:50:15;;;;;;;3.83;2.60;;;;;;;;;;10480469;28;19939;-76
2022/11/09 21:55:17;;;;;;;5.28;2.50;;;;;;;;;;10481826;28;20037;-78
2022/11/09 22:00:20;;;;;;;2.53;1.55;;;;;;;;;;10481627;28;20170;-77
2022/11/09 22:05:24;;;;;;;4.82;2.25;;;;;;;;;;10481111;28;20043;-78
2022/11/09 22:10:26;;;;;;;;;;;;;;;;;;10480004;28;20052;-76
2022/11/09 22:20:54;;;;;;;2.72;1.48;;;;;;;;;;10484526;28;20161;-77
2022/11/09 22:26:00;;;;;;;2.90;1.52;;;;;;;;;;10480945;28;20052;-76
2022/11/09 22:31:03;;;;;;;2.72;1.67;;;;;;;;;;10479842;28;20076;-75
2022/11/09 22:36:10;;;;;;;2.92;1.80;;;;;;;;;;10481135;28;20044;-77
2022/11/09 22:41:14;;;;;;;3.83;2.25;;;;;;;;;;10479909;28;20090;-77
2022/11/09 22:46:17;;;;;;;3.75;1.83;;;;;;;;;;10482277;28;20131;-77
2022/11/09 22:51:21;;;;;;;6.47;2.63;;;;;;;;;;10476187;28;21222;-77
2022/11/09 22:56:23;;;;;;;4.85;2.60;;;;;;;;;;10481246;28;20040;-77
2022/11/09 23:01:26;;;;;;;4.63;2.63;;;;;;;;;;10480201;28;20084;-76
2022/11/09 23:06:31;;;;;;;2.95;1.38;;;;;;;;;;10477013;28;20570;-77
2022/11/09 23:11:37;;;;;;;4.38;2.47;;;;;;;;;;10476470;28;20121;-77
2022/11/09 23:16:40;;;;;;;3.80;2.25;;;;;;;;;;10477136;28;20047;-77
2022/11/09 23:21:44;;;;;;;6.93;3.25;;;;;;;;;;10476773;28;20047;-77
2022/11/09 23:26:47;;;;;;;4.72;2.55;;;;;;;;;;10471707;28;20044;-77
2022/11/09 23:31:49;;;;;;;4.60;2.08;;;;;;;;;;10474652;28;20040;-77
2022/11/09 23:36:58;;;;;;;6.10;3.33;;;;;;;;;;10476036;28;20386;-77
2022/11/09 23:42:02;;;;;;;3.67;1.83;;;;;;;;;;10476383;28;20120;-77
2022/11/09 23:47:05;;;;;;;3.25;1.67;;;;;;;;;;10475470;28;20413;-77
2022/11/09 23:52:09;;;;;;;4.63;1.77;;;;;;;;;;10477344;28;21681;-77
2022/11/09 23:57:12;;;;;;;4.18;1.85;;;;;;;;;;10478081;28;20036;-77
